sensor_id;sensor_type;location;lat;lon;timestamp;temperature;humidity
9099;DHT22;4585;51.414;6.776;2022-08-14T00:00:46;18.50;99.90
9099;DHT22;4585;51.414;6.776;2022-08-14T00:05:45;18.40;99.90
9099;DHT22;4585;51.414;6.776;2022-08-14T00:08:14;18.30;99.90
9099;DHT22;4585;51.414;6.776;2022-08-14T00:10:43;18.30;1.00
9099;DHT22;4585;51.414;6.776;2022-08-14T00:13:10;18.20;1.00
9099;DHT22;4585;51.414;6.776;2022-08-14T00:15:40;18.10;1.00
9099;DHT22;4585;51.414;6.776;2022-08-14T00:18:08;18.10;1.00
9099;DHT22;4585;51.414;6.776;2022-08-14T00:20:38;18.00;1.00
9099;DHT22;4585;51.414;6.776;2022-08-14T00:23:07;18.00;1.00
9099;DHT22;4585;51.414;6.776;2022-08-14T00:25:36;17.90;1.00
9099;DHT22;4585;51.414;6.776;2022-08-14T00:28:07;17.90;1.00
9099;DHT22;4585;51.414;6.776;2022-08-14T00:30:39;17.80;38.80
9099;DHT22;4585;51.414;6.776;2022-08-14T00:33:08;17.80;86.00
9099;DHT22;4585;51.414;6.776;2022-08-14T00:35:37;17.80;24.40
9099;DHT22;4585;51.414;6.776;2022-08-14T00:38:06;17.80;99.90
9099;DHT22;4585;51.414;6.776;2022-08-14T00:40:32;17.80;99.90
9099;DHT22;4585;51.414;6.776;2022-08-14T00:43:03;17.70;99.90
9099;DHT22;4585;51.414;6.776;2022-08-14T00:45:32;17.70;99.90
9099;DHT22;4585;51.414;6.776;2022-08-14T00:47:59;17.60;99.90
9099;DHT22;4585;51.414;6.776;2022-08-14T00:50:28;17.50;1.00
9099;DHT22;4585;51.414;6.776;2022-08-14T00:52:58;17.50;1.00
9099;DHT22;4585;51.414;6.776;2022-08-14T00:55:28;17.50;1.00
9099;DHT22;4585;51.414;6.776;2022-08-14T00:57:58;17.50;1.70
9099;DHT22;4585;51.414;6.776;2022-08-14T01:00:42;17.40;99.90
9099;DHT22;4585;51.414;6.776;2022-08-14T01:03:09;17.40;1.00
9099;DHT22;4585;51.414;6.776;2022-08-14T01:05:35;17.30;1.00
9099;DHT22;4585;51.414;6.776;2022-08-14T01:08:04;17.30;99.90
9099;DHT22;4585;51.414;6.776;2022-08-14T01:10:30;17.30;99.90
9099;DHT22;4585;51.414;6.776;2022-08-14T01:13:22;17.20;99.90
9099;DHT22;4585;51.414;6.776;2022-08-14T01:15:54;17.20;99.90
9099;DHT22;4585;51.414;6.776;2022-08-14T01:18:24;17.20;99.90
9099;DHT22;4585;51.414;6.776;2022-08-14T01:21:09;17.20;99.90
9099;DHT22;4585;51.414;6.776;2022-08-14T01:23:48;17.20;99.90
9099;DHT22;4585;51.414;6.776;2022-08-14T01:26:16;17.20;1.00
9099;DHT22;4585;51.414;6.776;2022-08-14T01:28:46;17.10;1.00
9099;DHT22;4585;51.414;6.776;2022-08-14T01:31:19;17.10;1.00
9099;DHT22;4585;51.414;6.776;2022-08-14T01:33:47;17.10;1.00
9099;DHT22;4585;51.414;6.776;2022-08-14T01:36:16;17.00;1.00
9099;DHT22;4585;51.414;6.776;2022-08-14T01:38:44;17.00;1.00
9099;DHT22;4585;51.414;6.776;2022-08-14T01:41:23;16.90;1.00
9099;DHT22;4585;51.414;6.776;2022-08-14T01:43:53;16.90;13.20
9099;DHT22;4585;51.414;6.776;2022-08-14T01:46:33;16.90;1.00
9099;DHT22;4585;51.414;6.776;2022-08-14T01:49:00;16.90;99.90
9099;DHT22;4585;51.414;6.776;2022-08-14T01:51:28;16.80;99.90
9099;DHT22;4585;51.414;6.776;2022-08-14T01:54:06;16.80;99.90
9099;DHT22;4585;51.414;6.776;2022-08-14T01:56:37;16.70;1.00
9099;DHT22;4585;51.414;6.776;2022-08-14T02:01:49;16.60;1.00
9099;DHT22;4585;51.414;6.776;2022-08-14T02:04:19;16.60;1.00
9099;DHT22;4585;51.414;6.776;2022-08-14T02:06:49;16.60;1.00
9099;DHT22;4585;51.414;6.776;2022-08-14T02:09:17;16.60;1.00
9099;DHT22;4585;51.414;6.776;2022-08-14T02:11:44;16.60;79.70
9099;DHT22;4585;51.414;6.776;2022-08-14T02:14:12;16.50;99.90
9099;DHT22;4585;51.414;6.776;2022-08-14T02:16:42;16.50;99.90
9099;DHT22;4585;51.414;6.776;2022-08-14T02:19:13;16.50;99.90
9099;DHT22;4585;51.414;6.776;2022-08-14T02:21:42;16.40;1.00
9099;DHT22;4585;51.414;6.776;2022-08-14T02:24:12;16.40;1.00
9099;DHT22;4585;51.414;6.776;2022-08-14T02:26:42;16.40;1.00
9099;DHT22;4585;51.414;6.776;2022-08-14T02:29:17;16.40;1.00
9099;DHT22;4585;51.414;6.776;2022-08-14T02:31:52;16.30;1.00
9099;DHT22;4585;51.414;6.776;2022-08-14T02:34:33;16.30;1.00
9099;DHT22;4585;51.414;6.776;2022-08-14T02:37:11;16.30;1.00
9099;DHT22;4585;51.414;6.776;2022-08-14T02:39:42;16.30;1.00
9099;DHT22;4585;51.414;6.776;2022-08-14T02:42:12;16.30;1.00
9099;DHT22;4585;51.414;6.776;2022-08-14T02:44:42;16.30;1.00
9099;DHT22;4585;51.414;6.776;2022-08-14T02:47:13;16.20;91.50
9099;DHT22;4585;51.414;6.776;2022-08-14T02:49:43;16.20;99.90
9099;DHT22;4585;51.414;6.776;2022-08-14T02:52:11;16.20;99.90
9099;DHT22;4585;51.414;6.776;2022-08-14T02:54:40;16.20;99.90
9099;DHT22;4585;51.414;6.776;2022-08-14T02:57:09;16.20;1.00
9099;DHT22;4585;51.414;6.776;2022-08-14T02:59:35;16.10;1.00
9099;DHT22;4585;51.414;6.776;2022-08-14T03:02:04;16.10;1.00
9099;DHT22;4585;51.414;6.776;2022-08-14T03:04:32;16.10;1.00
9099;DHT22;4585;51.414;6.776;2022-08-14T03:06:59;16.00;1.00
9099;DHT22;4585;51.414;6.776;2022-08-14T03:09:27;16.00;1.00
9099;DHT22;4585;51.414;6.776;2022-08-14T03:12:00;16.00;1.00
9099;DHT22;4585;51.414;6.776;2022-08-14T03:14:30;16.00;1.00
9099;DHT22;4585;51.414;6.776;2022-08-14T03:17:03;16.00;1.00
9099;DHT22;4585;51.414;6.776;2022-08-14T03:19:31;16.00;1.00
9099;DHT22;4585;51.414;6.776;2022-08-14T03:22:00;16.00;1.00
9099;DHT22;4585;51.414;6.776;2022-08-14T03:24:29;16.00;1.00
9099;DHT22;4585;51.414;6.776;2022-08-14T03:26:57;16.00;1.00
9099;DHT22;4585;51.414;6.776;2022-08-14T03:29:26;16.00;1.00
9099;DHT22;4585;51.414;6.776;2022-08-14T03:31:56;15.90;1.00
9099;DHT22;4585;51.414;6.776;2022-08-14T03:34:24;15.90;1.00
9099;DHT22;4585;51.414;6.776;2022-08-14T03:36:52;15.90;1.00
9099;DHT22;4585;51.414;6.776;2022-08-14T03:39:24;15.90;1.00
9099;DHT22;4585;51.414;6.776;2022-08-14T03:41:55;15.90;1.00
9099;DHT22;4585;51.414;6.776;2022-08-14T03:44:27;15.90;1.00
9099;DHT22;4585;51.414;6.776;2022-08-14T03:46:55;15.90;1.00
9099;DHT22;4585;51.414;6.776;2022-08-14T03:49:24;15.80;1.00
9099;DHT22;4585;51.414;6.776;2022-08-14T03:51:53;15.80;1.00
9099;DHT22;4585;51.414;6.776;2022-08-14T03:54:19;15.80;1.00
9099;DHT22;4585;51.414;6.776;2022-08-14T03:56:45;15.80;1.00
9099;DHT22;4585;51.414;6.776;2022-08-14T03:59:14;15.80;1.00
9099;DHT22;4585;51.414;6.776;2022-08-14T04:01:40;15.70;1.00
9099;DHT22;4585;51.414;6.776;2022-08-14T04:04:11;15.60;1.00
9099;DHT22;4585;51.414;6.776;2022-08-14T04:06:40;15.60;64.10
9099;DHT22;4585;51.414;6.776;2022-08-14T04:09:09;15.60;47.50
9099;DHT22;4585;51.414;6.776;2022-08-14T04:11:41;15.60;63.10
9099;DHT22;4585;51.414;6.776;2022-08-14T04:14:10;15.60;94.10
9099;DHT22;4585;51.414;6.776;2022-08-14T04:16:41;15.60;61.20
9099;DHT22;4585;51.414;6.776;2022-08-14T04:19:15;15.60;76.40
9099;DHT22;4585;51.414;6.776;2022-08-14T04:21:46;15.60;70.60
9099;DHT22;4585;51.414;6.776;2022-08-14T04:24:16;15.50;89.80
9099;DHT22;4585;51.414;6.776;2022-08-14T04:26:45;15.60;99.90
9099;DHT22;4585;51.414;6.776;2022-08-14T04:29:14;15.50;99.90
9099;DHT22;4585;51.414;6.776;2022-08-14T04:31:44;15.60;99.90
9099;DHT22;4585;51.414;6.776;2022-08-14T04:34:11;15.50;99.90
9099;DHT22;4585;51.414;6.776;2022-08-14T04:36:40;15.50;99.90
9099;DHT22;4585;51.414;6.776;2022-08-14T04:39:27;15.50;99.90
9099;DHT22;4585;51.414;6.776;2022-08-14T04:42:15;15.50;99.90
9099;DHT22;4585;51.414;6.776;2022-08-14T04:44:59;15.50;99.90
9099;DHT22;4585;51.414;6.776;2022-08-14T04:47:28;15.50;99.90
9099;DHT22;4585;51.414;6.776;2022-08-14T04:50:15;15.50;99.90
9099;DHT22;4585;51.414;6.776;2022-08-14T04:52:44;15.50;99.90
9099;DHT22;4585;51.414;6.776;2022-08-14T04:55:16;15.50;99.90
9099;DHT22;4585;51.414;6.776;2022-08-14T04:57:45;15.50;99.90
9099;DHT22;4585;51.414;6.776;2022-08-14T05:00:16;15.60;99.90
9099;DHT22;4585;51.414;6.776;2022-08-14T05:02:49;15.60;99.90
9099;DHT22;4585;51.414;6.776;2022-08-14T05:05:16;15.60;99.90
9099;DHT22;4585;51.414;6.776;2022-08-14T05:07:45;15.60;99.90
9099;DHT22;4585;51.414;6.776;2022-08-14T05:10:19;15.60;99.90
9099;DHT22;4585;51.414;6.776;2022-08-14T05:12:53;15.70;99.90
9099;DHT22;4585;51.414;6.776;2022-08-14T05:15:25;15.70;99.90
9099;DHT22;4585;51.414;6.776;2022-08-14T05:17:55;15.70;99.90
9099;DHT22;4585;51.414;6.776;2022-08-14T05:20:32;15.80;99.90
9099;DHT22;4585;51.414;6.776;2022-08-14T05:23:02;15.90;99.90
9099;DHT22;4585;51.414;6.776;2022-08-14T05:25:34;15.90;99.90
9099;DHT22;4585;51.414;6.776;2022-08-14T05:28:24;15.90;99.90
9099;DHT22;4585;51.414;6.776;2022-08-14T05:30:55;16.00;99.90
9099;DHT22;4585;51.414;6.776;2022-08-14T05:33:24;16.10;99.90
9099;DHT22;4585;51.414;6.776;2022-08-14T05:35:55;16.20;99.90
9099;DHT22;4585;51.414;6.776;2022-08-14T05:38:32;16.20;99.90
9099;DHT22;4585;51.414;6.776;2022-08-14T05:41:06;16.30;99.90
9099;DHT22;4585;51.414;6.776;2022-08-14T05:43:38;16.40;99.90
9099;DHT22;4585;51.414;6.776;2022-08-14T05:46:10;16.50;99.90
9099;DHT22;4585;51.414;6.776;2022-08-14T05:48:38;16.60;99.90
9099;DHT22;4585;51.414;6.776;2022-08-14T05:51:05;16.70;99.90
9099;DHT22;4585;51.414;6.776;2022-08-14T05:53:37;16.80;99.90
9099;DHT22;4585;51.414;6.776;2022-08-14T05:56:06;16.90;99.90
9099;DHT22;4585;51.414;6.776;2022-08-14T05:58:32;17.00;1.00
9099;DHT22;4585;51.414;6.776;2022-08-14T06:01:03;17.20;1.00
9099;DHT22;4585;51.414;6.776;2022-08-14T06:03:29;17.30;1.00
9099;DHT22;4585;51.414;6.776;2022-08-14T06:05:55;17.30;1.00
9099;DHT22;4585;51.414;6.776;2022-08-14T06:08:27;17.50;1.00
9099;DHT22;4585;51.414;6.776;2022-08-14T06:10:55;17.60;1.00
9099;DHT22;4585;51.414;6.776;2022-08-14T06:13:22;17.80;1.00
9099;DHT22;4585;51.414;6.776;2022-08-14T06:15:53;17.90;1.00
9099;DHT22;4585;51.414;6.776;2022-08-14T06:18:25;18.10;99.90
9099;DHT22;4585;51.414;6.776;2022-08-14T06:20:54;18.30;99.90
9099;DHT22;4585;51.414;6.776;2022-08-14T06:23:20;18.60;1.00
9099;DHT22;4585;51.414;6.776;2022-08-14T06:25:48;18.80;99.90
9099;DHT22;4585;51.414;6.776;2022-08-14T06:28:22;19.00;1.00
9099;DHT22;4585;51.414;6.776;2022-08-14T06:30:52;19.20;1.00
9099;DHT22;4585;51.414;6.776;2022-08-14T06:33:21;19.40;99.90
9099;DHT22;4585;51.414;6.776;2022-08-14T06:35:50;19.60;1.00
9099;DHT22;4585;51.414;6.776;2022-08-14T06:38:19;19.90;99.90
9099;DHT22;4585;51.414;6.776;2022-08-14T06:40:49;20.20;1.00
9099;DHT22;4585;51.414;6.776;2022-08-14T06:43:18;20.40;99.90
9099;DHT22;4585;51.414;6.776;2022-08-14T06:45:48;20.60;99.90
9099;DHT22;4585;51.414;6.776;2022-08-14T06:48:19;20.90;1.00
9099;DHT22;4585;51.414;6.776;2022-08-14T06:50:51;21.20;1.10
9099;DHT22;4585;51.414;6.776;2022-08-14T06:53:21;21.40;1.00
9099;DHT22;4585;51.414;6.776;2022-08-14T06:55:47;21.60;1.00
9099;DHT22;4585;51.414;6.776;2022-08-14T06:58:15;22.00;99.90
9099;DHT22;4585;51.414;6.776;2022-08-14T07:00:45;22.30;1.00
9099;DHT22;4585;51.414;6.776;2022-08-14T07:03:30;22.50;1.00
9099;DHT22;4585;51.414;6.776;2022-08-14T07:06:20;22.90;99.90
9099;DHT22;4585;51.414;6.776;2022-08-14T07:08:51;23.10;1.00
9099;DHT22;4585;51.414;6.776;2022-08-14T07:11:17;23.20;1.00
9099;DHT22;4585;51.414;6.776;2022-08-14T07:13:43;23.40;1.00
9099;DHT22;4585;51.414;6.776;2022-08-14T07:16:09;23.50;1.00
9099;DHT22;4585;51.414;6.776;2022-08-14T07:18:38;23.80;1.00
9099;DHT22;4585;51.414;6.776;2022-08-14T07:21:05;23.80;1.00
9099;DHT22;4585;51.414;6.776;2022-08-14T07:23:31;24.10;1.00
9099;DHT22;4585;51.414;6.776;2022-08-14T07:26:04;24.20;99.90
9099;DHT22;4585;51.414;6.776;2022-08-14T07:28:39;24.40;1.00
9099;DHT22;4585;51.414;6.776;2022-08-14T07:31:08;24.50;99.90
9099;DHT22;4585;51.414;6.776;2022-08-14T07:33:37;24.50;99.90
9099;DHT22;4585;51.414;6.776;2022-08-14T07:36:06;24.60;51.40
9099;DHT22;4585;51.414;6.776;2022-08-14T07:38:32;24.70;1.00
9099;DHT22;4585;51.414;6.776;2022-08-14T07:40:58;24.90;11.90
9099;DHT22;4585;51.414;6.776;2022-08-14T07:43:25;25.00;1.00
9099;DHT22;4585;51.414;6.776;2022-08-14T07:45:54;25.10;23.50
9099;DHT22;4585;51.414;6.776;2022-08-14T07:48:26;25.30;1.00
9099;DHT22;4585;51.414;6.776;2022-08-14T07:50:57;25.40;1.00
9099;DHT22;4585;51.414;6.776;2022-08-14T07:53:24;25.50;1.00
9099;DHT22;4585;51.414;6.776;2022-08-14T07:55:52;25.60;1.00
9099;DHT22;4585;51.414;6.776;2022-08-14T07:58:19;25.70;1.00
9099;DHT22;4585;51.414;6.776;2022-08-14T08:00:45;25.90;1.00
9099;DHT22;4585;51.414;6.776;2022-08-14T08:03:16;26.00;1.00
9099;DHT22;4585;51.414;6.776;2022-08-14T08:05:42;26.10;1.00
9099;DHT22;4585;51.414;6.776;2022-08-14T08:08:15;26.10;1.00
9099;DHT22;4585;51.414;6.776;2022-08-14T08:10:45;26.20;1.00
9099;DHT22;4585;51.414;6.776;2022-08-14T08:13:18;26.40;1.00
9099;DHT22;4585;51.414;6.776;2022-08-14T08:15:54;26.50;1.00
9099;DHT22;4585;51.414;6.776;2022-08-14T08:18:26;26.60;1.00
9099;DHT22;4585;51.414;6.776;2022-08-14T08:20:53;26.70;1.00
9099;DHT22;4585;51.414;6.776;2022-08-14T08:23:22;26.90;1.00
9099;DHT22;4585;51.414;6.776;2022-08-14T08:25:51;26.90;1.00
9099;DHT22;4585;51.414;6.776;2022-08-14T08:28:22;26.90;1.00
9099;DHT22;4585;51.414;6.776;2022-08-14T08:31:01;27.00;99.90
9099;DHT22;4585;51.414;6.776;2022-08-14T08:33:32;27.30;1.00
9099;DHT22;4585;51.414;6.776;2022-08-14T08:36:03;27.50;99.90
9099;DHT22;4585;51.414;6.776;2022-08-14T08:38:30;27.50;99.90
9099;DHT22;4585;51.414;6.776;2022-08-14T08:40:58;27.60;99.90
9099;DHT22;4585;51.414;6.776;2022-08-14T08:43:32;27.60;99.90
9099;DHT22;4585;51.414;6.776;2022-08-14T08:46:09;27.60;99.90
9099;DHT22;4585;51.414;6.776;2022-08-14T08:53:59;27.70;99.90
9099;DHT22;4585;51.414;6.776;2022-08-14T08:59:28;27.90;99.90
9099;DHT22;4585;51.414;6.776;2022-08-14T09:02:02;28.10;99.90
9099;DHT22;4585;51.414;6.776;2022-08-14T09:04:37;28.30;99.90
9099;DHT22;4585;51.414;6.776;2022-08-14T09:07:04;28.40;99.90
9099;DHT22;4585;51.414;6.776;2022-08-14T09:09:32;28.60;99.90
9099;DHT22;4585;51.414;6.776;2022-08-14T09:12:00;28.60;99.90
9099;DHT22;4585;51.414;6.776;2022-08-14T09:14:28;28.70;99.90
9099;DHT22;4585;51.414;6.776;2022-08-14T09:16:55;28.70;99.90
9099;DHT22;4585;51.414;6.776;2022-08-14T09:19:22;28.70;99.90
9099;DHT22;4585;51.414;6.776;2022-08-14T09:21:48;28.80;99.90
9099;DHT22;4585;51.414;6.776;2022-08-14T09:24:16;29.00;99.90
9099;DHT22;4585;51.414;6.776;2022-08-14T09:26:43;29.10;99.90
9099;DHT22;4585;51.414;6.776;2022-08-14T09:29:11;29.00;99.90
9099;DHT22;4585;51.414;6.776;2022-08-14T09:31:41;29.00;99.90
9099;DHT22;4585;51.414;6.776;2022-08-14T09:43:19;29.40;99.90
9099;DHT22;4585;51.414;6.776;2022-08-14T09:45:49;29.60;99.90
9099;DHT22;4585;51.414;6.776;2022-08-14T09:48:24;29.50;99.90
9099;DHT22;4585;51.414;6.776;2022-08-14T09:51:01;29.50;99.90
9099;DHT22;4585;51.414;6.776;2022-08-14T09:53:37;29.60;99.90
9099;DHT22;4585;51.414;6.776;2022-08-14T09:56:10;29.70;99.90
9099;DHT22;4585;51.414;6.776;2022-08-14T09:58:44;29.90;99.90
9099;DHT22;4585;51.414;6.776;2022-08-14T10:01:18;29.90;99.90
9099;DHT22;4585;51.414;6.776;2022-08-14T10:03:53;30.00;99.90
9099;DHT22;4585;51.414;6.776;2022-08-14T10:06:25;30.00;99.90
9099;DHT22;4585;51.414;6.776;2022-08-14T10:11:34;30.10;99.90
9099;DHT22;4585;51.414;6.776;2022-08-14T10:14:18;30.10;99.90
9099;DHT22;4585;51.414;6.776;2022-08-14T10:16:49;30.10;99.90
9099;DHT22;4585;51.414;6.776;2022-08-14T10:19:22;29.90;99.90
9099;DHT22;4585;51.414;6.776;2022-08-14T10:22:08;29.80;99.90
9099;DHT22;4585;51.414;6.776;2022-08-14T10:24:44;30.00;99.90
9099;DHT22;4585;51.414;6.776;2022-08-14T10:27:17;30.00;99.90
9099;DHT22;4585;51.414;6.776;2022-08-14T10:29:52;30.20;99.90
9099;DHT22;4585;51.414;6.776;2022-08-14T10:32:21;30.30;99.90
9099;DHT22;4585;51.414;6.776;2022-08-14T10:34:51;30.30;99.90
9099;DHT22;4585;51.414;6.776;2022-08-14T10:37:40;30.50;99.90
9099;DHT22;4585;51.414;6.776;2022-08-14T10:40:35;30.60;99.90
9099;DHT22;4585;51.414;6.776;2022-08-14T10:43:26;30.70;99.90
9099;DHT22;4585;51.414;6.776;2022-08-14T10:45:59;30.80;99.90
9099;DHT22;4585;51.414;6.776;2022-08-14T10:48:26;30.80;99.90
9099;DHT22;4585;51.414;6.776;2022-08-14T10:50:57;30.90;99.90
9099;DHT22;4585;51.414;6.776;2022-08-14T10:53:28;30.90;99.90
9099;DHT22;4585;51.414;6.776;2022-08-14T10:56:03;30.90;99.90
9099;DHT22;4585;51.414;6.776;2022-08-14T10:58:33;30.90;99.90
9099;DHT22;4585;51.414;6.776;2022-08-14T11:01:02;30.80;99.90
9099;DHT22;4585;51.414;6.776;2022-08-14T11:03:42;30.80;99.90
9099;DHT22;4585;51.414;6.776;2022-08-14T11:06:16;30.80;99.90
9099;DHT22;4585;51.414;6.776;2022-08-14T11:08:46;30.90;94.00
9099;DHT22;4585;51.414;6.776;2022-08-14T11:11:12;30.70;99.90
9099;DHT22;4585;51.414;6.776;2022-08-14T11:13:41;30.70;99.90
9099;DHT22;4585;51.414;6.776;2022-08-14T11:16:15;30.80;99.90
9099;DHT22;4585;51.414;6.776;2022-08-14T11:18:46;31.00;49.30
9099;DHT22;4585;51.414;6.776;2022-08-14T11:21:21;31.20;99.90
9099;DHT22;4585;51.414;6.776;2022-08-14T11:23:50;31.40;55.00
9099;DHT22;4585;51.414;6.776;2022-08-14T11:26:25;31.40;99.90
9099;DHT22;4585;51.414;6.776;2022-08-14T11:28:55;31.30;99.90
9099;DHT22;4585;51.414;6.776;2022-08-14T11:31:26;31.30;99.90
9099;DHT22;4585;51.414;6.776;2022-08-14T11:33:54;31.30;99.90
9099;DHT22;4585;51.414;6.776;2022-08-14T11:36:23;31.10;99.90
9099;DHT22;4585;51.414;6.776;2022-08-14T11:38:56;31.00;99.90
9099;DHT22;4585;51.414;6.776;2022-08-14T11:41:25;31.00;54.80
9099;DHT22;4585;51.414;6.776;2022-08-14T11:43:54;31.10;99.90
9099;DHT22;4585;51.414;6.776;2022-08-14T11:46:23;31.10;99.90
9099;DHT22;4585;51.414;6.776;2022-08-14T11:48:52;31.00;99.90
9099;DHT22;4585;51.414;6.776;2022-08-14T11:51:25;31.00;99.90
9099;DHT22;4585;51.414;6.776;2022-08-14T11:54:00;31.00;96.00
9099;DHT22;4585;51.414;6.776;2022-08-14T11:56:36;31.20;99.90
9099;DHT22;4585;51.414;6.776;2022-08-14T11:59:06;31.20;63.90
9099;DHT22;4585;51.414;6.776;2022-08-14T12:01:39;31.40;99.90
9099;DHT22;4585;51.414;6.776;2022-08-14T12:04:16;31.30;99.90
9099;DHT22;4585;51.414;6.776;2022-08-14T12:06:52;31.30;99.90
9099;DHT22;4585;51.414;6.776;2022-08-14T12:09:31;31.40;99.90
9099;DHT22;4585;51.414;6.776;2022-08-14T12:11:59;31.60;99.90
9099;DHT22;4585;51.414;6.776;2022-08-14T12:14:25;31.80;99.90
9099;DHT22;4585;51.414;6.776;2022-08-14T12:19:31;31.90;99.90
9099;DHT22;4585;51.414;6.776;2022-08-14T12:22:10;31.80;99.90
9099;DHT22;4585;51.414;6.776;2022-08-14T12:24:37;31.60;99.90
9099;DHT22;4585;51.414;6.776;2022-08-14T12:27:06;31.60;99.90
9099;DHT22;4585;51.414;6.776;2022-08-14T12:29:34;31.40;99.90
9099;DHT22;4585;51.414;6.776;2022-08-14T12:32:02;31.40;99.90
9099;DHT22;4585;51.414;6.776;2022-08-14T12:34:35;31.50;74.40
9099;DHT22;4585;51.414;6.776;2022-08-14T12:37:06;31.60;99.90
9099;DHT22;4585;51.414;6.776;2022-08-14T12:39:34;31.80;99.90
9099;DHT22;4585;51.414;6.776;2022-08-14T12:42:02;31.80;99.90
9099;DHT22;4585;51.414;6.776;2022-08-14T12:44:35;31.80;99.90
9099;DHT22;4585;51.414;6.776;2022-08-14T12:47:12;31.90;99.90
9099;DHT22;4585;51.414;6.776;2022-08-14T12:49:52;31.80;99.90
9099;DHT22;4585;51.414;6.776;2022-08-14T12:52:34;31.80;99.90
9099;DHT22;4585;51.414;6.776;2022-08-14T12:55:03;32.00;99.90
9099;DHT22;4585;51.414;6.776;2022-08-14T12:57:41;32.10;99.90
9099;DHT22;4585;51.414;6.776;2022-08-14T13:00:12;32.20;99.90
9099;DHT22;4585;51.414;6.776;2022-08-14T13:02:45;32.20;99.90
9099;DHT22;4585;51.414;6.776;2022-08-14T13:05:13;32.10;99.90
9099;DHT22;4585;51.414;6.776;2022-08-14T13:07:40;32.00;99.90
9099;DHT22;4585;51.414;6.776;2022-08-14T13:10:09;32.10;99.90
9099;DHT22;4585;51.414;6.776;2022-08-14T13:12:37;32.20;99.90
9099;DHT22;4585;51.414;6.776;2022-08-14T13:15:05;32.40;99.90
9099;DHT22;4585;51.414;6.776;2022-08-14T13:17:46;32.40;99.90
9099;DHT22;4585;51.414;6.776;2022-08-14T13:20:20;32.50;99.90
9099;DHT22;4585;51.414;6.776;2022-08-14T13:22:47;32.50;99.90
9099;DHT22;4585;51.414;6.776;2022-08-14T13:25:24;32.30;99.90
9099;DHT22;4585;51.414;6.776;2022-08-14T13:27:55;32.30;99.90
9099;DHT22;4585;51.414;6.776;2022-08-14T13:30:27;32.40;25.70
9099;DHT22;4585;51.414;6.776;2022-08-14T13:32:55;32.40;99.90
9099;DHT22;4585;51.414;6.776;2022-08-14T13:35:22;32.60;99.90
9099;DHT22;4585;51.414;6.776;2022-08-14T13:37:50;32.80;40.50
9099;DHT22;4585;51.414;6.776;2022-08-14T13:40:17;32.90;96.80
9099;DHT22;4585;51.414;6.776;2022-08-14T13:42:49;32.80;99.90
9099;DHT22;4585;51.414;6.776;2022-08-14T13:45:18;32.60;47.50
9099;DHT22;4585;51.414;6.776;2022-08-14T13:47:51;32.60;33.00
9099;DHT22;4585;51.414;6.776;2022-08-14T13:50:22;32.60;79.10
9099;DHT22;4585;51.414;6.776;2022-08-14T13:52:50;32.60;1.00
9099;DHT22;4585;51.414;6.776;2022-08-14T13:55:25;32.70;1.00
9099;DHT22;4585;51.414;6.776;2022-08-14T13:57:58;32.80;99.90
9099;DHT22;4585;51.414;6.776;2022-08-14T14:00:25;32.70;69.50
9099;DHT22;4585;51.414;6.776;2022-08-14T14:02:54;32.50;99.90
9099;DHT22;4585;51.414;6.776;2022-08-14T14:05:27;32.60;99.90
9099;DHT22;4585;51.414;6.776;2022-08-14T14:11:37;32.80;99.90
9099;DHT22;4585;51.414;6.776;2022-08-14T14:33:43;32.10;99.90
9099;DHT22;4585;51.414;6.776;2022-08-14T14:39:38;32.40;99.90
9099;DHT22;4585;51.414;6.776;2022-08-14T14:42:49;32.40;99.90
9099;DHT22;4585;51.414;6.776;2022-08-14T14:45:53;32.20;99.90
9099;DHT22;4585;51.414;6.776;2022-08-14T14:55:02;31.30;79.50
9099;DHT22;4585;51.414;6.776;2022-08-14T15:01:09;31.00;99.90
9099;DHT22;4585;51.414;6.776;2022-08-14T15:07:16;30.80;1.00
9099;DHT22;4585;51.414;6.776;2022-08-14T15:10:16;30.70;15.70
9099;DHT22;4585;51.414;6.776;2022-08-14T15:13:00;30.70;26.50
9099;DHT22;4585;51.414;6.776;2022-08-14T15:15:26;30.70;99.90
9099;DHT22;4585;51.414;6.776;2022-08-14T15:24:33;30.90;99.90
9099;DHT22;4585;51.414;6.776;2022-08-14T15:27:00;30.90;99.90
9099;DHT22;4585;51.414;6.776;2022-08-14T15:30:02;30.90;99.90
9099;DHT22;4585;51.414;6.776;2022-08-14T15:36:26;30.70;99.90
9099;DHT22;4585;51.414;6.776;2022-08-14T15:39:05;30.70;22.90
9099;DHT22;4585;51.414;6.776;2022-08-14T15:42:06;30.60;99.90
9099;DHT22;4585;51.414;6.776;2022-08-14T15:45:07;30.50;1.00
9099;DHT22;4585;51.414;6.776;2022-08-14T15:48:06;30.40;84.40
9099;DHT22;4585;51.414;6.776;2022-08-14T15:51:10;30.30;99.90
9099;DHT22;4585;51.414;6.776;2022-08-14T15:54:10;30.30;81.20
9099;DHT22;4585;51.414;6.776;2022-08-14T15:56:36;30.20;99.90
9099;DHT22;4585;51.414;6.776;2022-08-14T15:59:02;30.20;99.90
9099;DHT22;4585;51.414;6.776;2022-08-14T16:01:32;30.30;99.90
9099;DHT22;4585;51.414;6.776;2022-08-14T16:07:26;30.30;99.90
9099;DHT22;4585;51.414;6.776;2022-08-14T16:25:50;29.60;99.90
9099;DHT22;4585;51.414;6.776;2022-08-14T16:32:10;29.60;89.70
9099;DHT22;4585;51.414;6.776;2022-08-14T16:38:20;29.60;83.40
9099;DHT22;4585;51.414;6.776;2022-08-14T16:41:25;29.50;53.90
9099;DHT22;4585;51.414;6.776;2022-08-14T16:44:30;29.50;99.90
9099;DHT22;4585;51.414;6.776;2022-08-14T16:50:40;29.40;99.90
9099;DHT22;4585;51.414;6.776;2022-08-14T16:59:40;29.30;19.80
9099;DHT22;4585;51.414;6.776;2022-08-14T17:02:45;29.40;16.80
9099;DHT22;4585;51.414;6.776;2022-08-14T17:08:58;29.20;12.40
9099;DHT22;4585;51.414;6.776;2022-08-14T17:12:03;29.10;16.70
9099;DHT22;4585;51.414;6.776;2022-08-14T17:15:08;29.10;26.20
9099;DHT22;4585;51.414;6.776;2022-08-14T17:33:41;29.50;1.00
9099;DHT22;4585;51.414;6.776;2022-08-14T17:36:45;29.60;33.00
9099;DHT22;4585;51.414;6.776;2022-08-14T17:39:45;29.60;1.00
9099;DHT22;4585;51.414;6.776;2022-08-14T17:46:05;29.70;1.00
9099;DHT22;4585;51.414;6.776;2022-08-14T17:49:01;29.80;1.00
9099;DHT22;4585;51.414;6.776;2022-08-14T17:55:05;29.60;10.20
9099;DHT22;4585;51.414;6.776;2022-08-14T17:57:43;29.50;27.40
9099;DHT22;4585;51.414;6.776;2022-08-14T18:07:15;29.10;19.40
9099;DHT22;4585;51.414;6.776;2022-08-14T18:10:02;28.90;10.70
9099;DHT22;4585;51.414;6.776;2022-08-14T18:12:48;28.80;1.00
9099;DHT22;4585;51.414;6.776;2022-08-14T18:15:35;28.90;1.00
9099;DHT22;4585;51.414;6.776;2022-08-14T18:18:10;28.80;1.00
9099;DHT22;4585;51.414;6.776;2022-08-14T18:21:11;28.80;1.00
9099;DHT22;4585;51.414;6.776;2022-08-14T18:23:59;28.70;1.00
9099;DHT22;4585;51.414;6.776;2022-08-14T18:26:29;28.60;1.00
9099;DHT22;4585;51.414;6.776;2022-08-14T18:29:02;28.40;3.60
9099;DHT22;4585;51.414;6.776;2022-08-14T18:31:35;28.40;1.00
9099;DHT22;4585;51.414;6.776;2022-08-14T18:34:42;28.20;1.00
9099;DHT22;4585;51.414;6.776;2022-08-14T18:37:53;28.10;1.00
9099;DHT22;4585;51.414;6.776;2022-08-14T18:46:10;27.60;1.00
9099;DHT22;4585;51.414;6.776;2022-08-14T18:52:41;27.20;1.00
9099;DHT22;4585;51.414;6.776;2022-08-14T19:01:43;26.40;1.00
9099;DHT22;4585;51.414;6.776;2022-08-14T19:08:19;25.90;1.00
9099;DHT22;4585;51.414;6.776;2022-08-14T19:23:45;24.70;99.90
9099;DHT22;4585;51.414;6.776;2022-08-14T19:36:25;24.10;51.10
9099;DHT22;4585;51.414;6.776;2022-08-14T19:38:58;24.00;99.90
9099;DHT22;4585;51.414;6.776;2022-08-14T19:41:31;23.80;99.90
9099;DHT22;4585;51.414;6.776;2022-08-14T19:44:14;23.70;99.90
9099;DHT22;4585;51.414;6.776;2022-08-14T19:47:01;23.50;99.90
9099;DHT22;4585;51.414;6.776;2022-08-14T19:49:37;23.40;99.90
9099;DHT22;4585;51.414;6.776;2022-08-14T19:52:03;23.30;99.90
9099;DHT22;4585;51.414;6.776;2022-08-14T19:54:34;23.20;99.90
9099;DHT22;4585;51.414;6.776;2022-08-14T19:57:03;23.20;99.90